^^
Station Historical Data
Daily Summary for May 18, 2017 Units:  English    Metric   Both
« Previous Day
Next Day »
Daily Weekly Monthly Yearly Custom
  High: Low: Average:
Temperature: 42.3 °F 33.8 °F 37.5 °F
Dew Point: 39.2 °F 31.4 °F 34.8 °F
Humidity: 93% 85% 90%
Wind Speed: 18.4mph 0.0mph 6.6mph
Wind Gust: 18.4mph - -
Wind- - WSW
Pressure: 30.08 in 29.59 in -
Precipitation: 2.78 in    
Historical Graphs
 
 
Tabular Data for May 18, 2017
Time Temperature Dew Point Pressure Wind Wind Speed Wind Gust Humidity Rainfall Rate (Hourly) solar Conditions
00:00 42.1 °F 38.5 °F 29.65 in NNW 3.5 mph 3.5 mph 87% 0.08 in WeatherDisplay:10.37 W/m2 RA
00:05 42.2 °F 38.6 °F 29.64 in NNW 3.5 mph 3.5 mph 87% 0.08 in WeatherDisplay:10.37 W/m2 RA
00:10 42.2 °F 38.6 °F 29.64 in North 4.6 mph 4.6 mph 87% 0.08 in WeatherDisplay:10.37 W/m2 RA
00:15 42.2 °F 38.6 °F 29.64 in NNW 3.5 mph 3.5 mph 87% 0.09 in WeatherDisplay:10.37 W/m2 RA
00:20 42.3 °F 38.7 °F 29.63 in NW 6.9 mph 6.9 mph 87% 0.09 in WeatherDisplay:10.37 W/m2 RA
00:25 42.3 °F 38.7 °F 29.63 in NNW 8.1 mph 8.1 mph 87% 0.09 in WeatherDisplay:10.37 W/m2 RA
00:30 42.2 °F 38.3 °F 29.63 in North 4.6 mph 4.6 mph 86% 0.10 in WeatherDisplay:10.37 W/m2 RA
00:35 42.1 °F 38.2 °F 29.63 in North 10.4 mph 10.4 mph 86% 0.09 in WeatherDisplay:10.37 W/m2 RA
00:37 42.0 °F 37.8 °F 29.63 in North 11.5 mph 11.5 mph 85% 0.09 in WeatherDisplay:10.37 W/m2 RA
00:42 41.9 °F 38.0 °F 29.63 in NNE 4.0 mph 4.0 mph 86% 0.09 in WeatherDisplay:10.37 W/m2 RA
00:47 41.8 °F 37.9 °F 29.63 in NW 3.5 mph 3.5 mph 86% 0.09 in WeatherDisplay:10.37 W/m2 RA
00:52 41.8 °F 37.9 °F 29.63 in NNW 6.9 mph 6.9 mph 86% 0.09 in WeatherDisplay:10.37 W/m2 RA
00:57 41.7 °F 37.8 °F 29.63 in WSW 11.5 mph 11.5 mph 86% 0.08 in WeatherDisplay:10.37 W/m2 RA
01:11 41.6 °F 37.7 °F 29.63 in NNW 10.4 mph 10.4 mph 86% 0.06 in WeatherDisplay:10.37 W/m2 CLR
01:16 41.6 °F 37.7 °F 29.63 in North 10.4 mph 10.4 mph 86% 0.05 in WeatherDisplay:10.37 W/m2 CLR
01:21 41.5 °F 37.6 °F 29.62 in North 11.5 mph 11.5 mph 86% 0.04 in WeatherDisplay:10.37 W/m2 CLR
01:26 41.5 °F 37.9 °F 29.62 in NNW 9.2 mph 9.2 mph 87% 0.04 in WeatherDisplay:10.37 W/m2 RA
01:31 41.3 °F 37.1 °F 29.62 in NW 5.8 mph 5.8 mph 85% 0.03 in WeatherDisplay:10.37 W/m2 RA
01:36 41.2 °F 37.3 °F 29.62 in NNE 10.4 mph 10.4 mph 86% 0.04 in WeatherDisplay:10.37 W/m2 RA
01:41 41.1 °F 37.2 °F 29.61 in NW 10.0 mph 10.0 mph 86% 0.04 in WeatherDisplay:10.37 W/m2 RA
01:46 41.0 °F 37.4 °F 29.61 in NNW 7.0 mph 7.0 mph 87% 0.04 in WeatherDisplay:10.37 W/m2 RA
01:51 41.0 °F 37.4 °F 29.61 in NNW 4.6 mph 4.6 mph 87% 0.03 in WeatherDisplay:10.37 W/m2 RA
01:56 41.0 °F 37.4 °F 29.61 in NE 10.4 mph 10.4 mph 87% 0.04 in WeatherDisplay:10.37 W/m2 RA
02:01 41.0 °F 37.4 °F 29.61 in North 11.5 mph 11.5 mph 87% 0.04 in WeatherDisplay:10.37 W/m2 RA
02:06 41.1 °F 37.8 °F 29.60 in NNE 7.0 mph 7.0 mph 88% 0.04 in WeatherDisplay:10.37 W/m2 CLR
02:11 41.2 °F 37.9 °F 29.60 in NW 5.8 mph 5.8 mph 88% 0.04 in WeatherDisplay:10.37 W/m2 CLR
02:16 41.1 °F 37.8 °F 29.60 in NNE 6.9 mph 6.9 mph 88% 0.06 in WeatherDisplay:10.37 W/m2 RA
02:21 41.1 °F 37.5 °F 29.61 in North 4.6 mph 4.6 mph 87% 0.08 in WeatherDisplay:10.37 W/m2 RA
02:26 41.0 °F 37.4 °F 29.61 in North 12.7 mph 12.7 mph 87% 0.07 in WeatherDisplay:10.37 W/m2 RA
02:31 40.9 °F 37.3 °F 29.60 in NNE 9.0 mph 9.0 mph 87% 0.07 in WeatherDisplay:10.37 W/m2
02:36 40.9 °F 37.6 °F 29.60 in West 6.9 mph 6.9 mph 88% 0.08 in WeatherDisplay:10.37 W/m2 RA
02:41 40.9 °F 37.9 °F 29.60 in North 7.0 mph 7.0 mph 89% 0.08 in WeatherDisplay:10.37 W/m2 RA
02:46 40.9 °F 37.6 °F 29.60 in NW 5.8 mph 5.8 mph 88% 0.08 in WeatherDisplay:10.37 W/m2 RA
02:56 40.9 °F 37.6 °F 29.60 in NNW 4.6 mph 5.0 mph 88% 0.10 in WeatherDisplay:10.37 W/m2 RA
03:01 41.0 °F 37.7 °F 29.59 in WSW 10.4 mph 10.4 mph 88% 0.11 in WeatherDisplay:10.37 W/m2 RA
03:06 41.0 °F 37.7 °F 29.60 in NNE 11.5 mph 11.5 mph 88% 0.12 in WeatherDisplay:10.37 W/m2 RA
03:11 41.0 °F 37.7 °F 29.60 in NNE 4.6 mph 4.6 mph 88% 0.12 in WeatherDisplay:10.37 W/m2 RA
03:16 41.0 °F 37.7 °F 29.60 in NW 8.1 mph 8.1 mph 88% 0.11 in WeatherDisplay:10.37 W/m2 RA
03:21 41.1 °F 38.1 °F 29.60 in NNW 8.1 mph 8.1 mph 89% 0.10 in WeatherDisplay:10.37 W/m2 RA
03:26 41.0 °F 37.7 °F 29.60 in WNW 2.3 mph 2.3 mph 88% 0.11 in WeatherDisplay:10.37 W/m2 RA
03:31 40.9 °F 37.6 °F 29.60 in SW 2.3 mph 2.3 mph 88% 0.12 in WeatherDisplay:10.37 W/m2 RA
03:36 40.7 °F 37.4 °F 29.60 in NNE 6.9 mph 6.9 mph 88% 0.10 in WeatherDisplay:10.37 W/m2 RA
03:41 40.7 °F 37.4 °F 29.60 in SW 2.3 mph   88% 0.11 in WeatherDisplay:10.37 W/m2 RA
03:46 40.6 °F 37.6 °F 29.60 in NNE 1.2 mph 1.2 mph 89% 0.12 in WeatherDisplay:10.37 W/m2 RA
03:51 40.6 °F 37.6 °F 29.61 in NW 3.5 mph 3.5 mph 89% 0.12 in WeatherDisplay:10.37 W/m2 RA
03:56 40.6 °F 37.6 °F 29.61 in West 6.9 mph 6.9 mph 89% 0.12 in WeatherDisplay:10.37 W/m2 RA
04:01 40.6 °F 37.6 °F 29.63 in NW 6.9 mph 6.9 mph 89% 0.12 in WeatherDisplay:10.37 W/m2 RA
04:06 40.5 °F 37.5 °F 29.63 in North 1.2 mph 1.5 mph 89% 0.12 in WeatherDisplay:10.37 W/m2 RA
04:11 40.5 °F 37.2 °F 29.62 in WSW 4.6 mph 4.6 mph 88% 0.15 in WeatherDisplay:10.37 W/m2 RA
04:16 40.4 °F 37.4 °F 29.62 in NE 3.5 mph 3.5 mph 89% 0.16 in WeatherDisplay:10.37 W/m2 RA
04:21 40.3 °F 37.3 °F 29.63 in WSW 4.6 mph 4.6 mph 89% 0.17 in WeatherDisplay:10.37 W/m2 RA
04:26 40.3 °F 37.0 °F 29.63 in North 3.5 mph 3.5 mph 88% 0.17 in WeatherDisplay:10.37 W/m2 RA
04:31 40.2 °F 37.2 °F 29.62 in North 3.5 mph 3.5 mph 89% 0.18 in WeatherDisplay:10.37 W/m2 RA
04:36 40.2 °F 37.2 °F 29.63 in NNE 3.5 mph 3.5 mph 89% 0.20 in WeatherDisplay:10.37 W/m2 RA
04:41 40.2 °F 36.9 °F 29.63 in NNE 5.8 mph 5.8 mph 88% 0.20 in WeatherDisplay:10.37 W/m2 RA
04:46 40.1 °F 36.8 °F 29.63 in NW 3.5 mph 3.5 mph 88% 0.20 in WeatherDisplay:10.37 W/m2 RA
04:51 40.0 °F 36.7 °F 29.63 in WSW 9.2 mph 9.2 mph 88% 0.21 in WeatherDisplay:10.37 W/m2 RA
04:56 40.0 °F 36.7 °F 29.62 in NW 1.2 mph 1.2 mph 88% 0.20 in WeatherDisplay:10.37 W/m2 RA
05:01 40.0 °F 37.0 °F 29.68 in SSW 9.0 mph 9.0 mph 89% 0.20 in WeatherDisplay:10.37 W/m2 RA
05:06 39.9 °F 36.9 °F 29.68 in NW 3.0 mph 3.6 mph 89% 0.21 in WeatherDisplay:10.37 W/m2 RA
05:11 40.0 °F 37.0 °F 29.67 in NNW 7.0 mph 7.0 mph 89% 0.19 in WeatherDisplay:10.37 W/m2 RA
05:16 40.0 °F 37.0 °F 29.67 in ENE 6.9 mph 6.9 mph 89% 0.18 in WeatherDisplay:10.37 W/m2 RA
05:21 40.0 °F 36.7 °F 29.67 in North 5.8 mph 5.8 mph 88% 0.16 in WeatherDisplay:10.37 W/m2 RA
05:26 40.0 °F 37.0 °F 29.67 in WNW 5.8 mph 5.8 mph 89% 0.15 in WeatherDisplay:10.37 W/m2 RA
05:31 40.1 °F 37.1 °F 29.67 in NW 9.2 mph 9.2 mph 89% 0.15 in WeatherDisplay:10.37 W/m2 RA
05:36 40.1 °F 36.8 °F 29.67 in NNW 5.8 mph 5.8 mph 88% 0.13 in WeatherDisplay:10.37 W/m2 RA
05:41 40.1 °F 36.8 °F 29.67 in NNE 4.6 mph 4.6 mph 88% 0.12 in WeatherDisplay:10.37 W/m2 RA
05:46 40.0 °F 36.7 °F 29.67 in NNE 11.5 mph 11.5 mph 88% 0.11 in WeatherDisplay:10.37 W/m2 RA
05:51 40.0 °F 36.7 °F 29.67 in NW 6.9 mph 6.9 mph 88% 0.10 in WeatherDisplay:10.37 W/m2 RA
05:56 40.0 °F 37.0 °F 29.67 in North 6.0 mph 6.0 mph 89% 0.10 in WeatherDisplay:10.37 W/m2 RA
06:01 40.0 °F 37.0 °F 29.68 in NNW 3.5 mph 3.5 mph 89% 0.09 in WeatherDisplay:10.37 W/m2 RA
06:06 40.0 °F 37.0 °F 29.68 in NNE 11.5 mph 11.5 mph 89% 0.10 in WeatherDisplay:10.37 W/m2 RA
06:11 39.8 °F 36.8 °F 29.68 in NW 10.4 mph 10.4 mph 89% 0.11 in WeatherDisplay:10.37 W/m2 RA
06:16 39.8 °F 36.8 °F 29.68 in NW 6.0 mph 6.0 mph 89% 0.11 in WeatherDisplay:10.37 W/m2 RA
06:27 39.9 °F 36.9 °F 29.69 in NNW 3.5 mph 3.5 mph 89% 0.12 in WeatherDisplay:10.37 W/m2 RA
06:32 40.0 °F 37.3 °F 29.69 in West 9.2 mph 9.2 mph 90% 0.12 in WeatherDisplay:10.37 W/m2 RA
06:37 39.9 °F 36.9 °F 29.69 in NNW 3.5 mph 3.5 mph 89% 0.14 in WeatherDisplay:10.37 W/m2 RA
06:42 39.8 °F 36.8 °F 29.69 in WNW 3.5 mph 3.5 mph 89% 0.15 in WeatherDisplay:10.37 W/m2 RA
06:47 39.7 °F 36.7 °F 29.68 in NW 5.8 mph 5.8 mph 89% 0.17 in WeatherDisplay:10.37 W/m2 RA
06:52 39.5 °F 36.5 °F 29.69 in WNW 4.0 mph 4.0 mph 89% 0.18 in WeatherDisplay:10.37 W/m2 RA
06:57 39.5 °F 36.8 °F 29.70 in WNW 1.2 mph 1.2 mph 90% 0.19 in WeatherDisplay:10.37 W/m2 RA
07:02 39.5 °F 36.8 °F 29.72 in WNW 3.5 mph 3.5 mph 90% 0.19 in WeatherDisplay:10.37 W/m2 RA
07:07 39.6 °F 36.9 °F 29.73 in West 2.3 mph 2.3 mph 90% 0.19 in WeatherDisplay:10.37 W/m2 RA
07:12 39.6 °F 36.9 °F 29.73 in WNW 3.5 mph 3.5 mph 90% 0.20 in WeatherDisplay:10.37 W/m2 RA
07:17 39.6 °F 36.9 °F 29.73 in NW 3.5 mph 3.5 mph 90% 0.21 in WeatherDisplay:10.37 W/m2 RA
07:22 39.6 °F 36.9 °F 29.73 in West 6.9 mph 6.9 mph 90% 0.22 in WeatherDisplay:10.37 W/m2 RA
07:27 39.6 °F 36.9 °F 29.73 in WNW 3.5 mph 3.5 mph 90% 0.23 in WeatherDisplay:10.37 W/m2 RA
07:32 39.7 °F 37.3 °F 29.73 in NNW 5.8 mph 5.8 mph 91% 0.24 in WeatherDisplay:10.37 W/m2 RA
07:37 39.8 °F 37.4 °F 29.73 in North 4.0 mph 4.0 mph 91% 0.24 in WeatherDisplay:10.37 W/m2 RA
07:42 40.0 °F 37.6 °F 29.73 in North 3.5 mph 3.5 mph 91% 0.23 in WeatherDisplay:10.37 W/m2 RA
07:47 40.3 °F 37.9 °F 29.73 in NW 4.6 mph 4.6 mph 91% 0.23 in WeatherDisplay:10.37 W/m2 RA
07:52 40.4 °F 38.0 °F 29.72 in NNW 5.8 mph 5.8 mph 91% 0.22 in WeatherDisplay:10.37 W/m2 RA
07:57 40.7 °F 38.3 °F 29.72 in North 8.1 mph 8.1 mph 91% 0.21 in WeatherDisplay:10.37 W/m2 RA
08:02 41.0 °F 38.3 °F 29.72 in NNW 6.9 mph 6.9 mph 90% 0.21 in WeatherDisplay:10.37 W/m2 RA
08:03 41.1 °F 38.4 °F 29.72 in NNW 5.8 mph 5.8 mph 90% 0.20 in WeatherDisplay:10.37 W/m2 RA
08:08 41.4 °F 38.7 °F 29.72 in North 11.5 mph 11.5 mph 90% 0.20 in WeatherDisplay:10.37 W/m2 RA
08:13 41.5 °F 38.8 °F 29.71 in North 3.5 mph 3.5 mph 90% 0.18 in WeatherDisplay:10.37 W/m2 RA
08:23 41.7 °F 39.0 °F 29.72 in North 3.5 mph 3.5 mph 90% 0.16 in WeatherDisplay:10.37 W/m2 RA
08:28 41.7 °F 39.0 °F 29.73 in North 3.0 mph 3.0 mph 90% 0.14 in WeatherDisplay:10.37 W/m2 RA
08:33 41.7 °F 39.0 °F 29.74 in NNW 3.5 mph 3.5 mph 90% 0.13 in WeatherDisplay:10.37 W/m2 RA
08:38 41.7 °F 39.0 °F 29.74 in North 6.0 mph 6.0 mph 90% 0.12 in WeatherDisplay:10.37 W/m2 RA
08:43 41.7 °F 39.0 °F 29.74 in North 4.6 mph 4.6 mph 90% 0.13 in WeatherDisplay:10.37 W/m2 RA
08:48 41.6 °F 38.9 °F 29.74 in NNW 3.0 mph 3.0 mph 90% 0.14 in WeatherDisplay:10.37 W/m2 RA
08:53 41.6 °F 38.9 °F 29.74 in North 10.4 mph 10.4 mph 90% 0.17 in WeatherDisplay:10.37 W/m2 RA
08:58 41.7 °F 39.0 °F 29.74 in North 7.0 mph 7.0 mph 90% 0.18 in WeatherDisplay:10.37 W/m2 RA
09:03 41.8 °F 39.1 °F 29.76 in North 5.8 mph 5.8 mph 90% 0.19 in WeatherDisplay:10.37 W/m2 RA
09:08 41.8 °F 38.8 °F 29.76 in North 6.9 mph 6.9 mph 89% 0.19 in WeatherDisplay:10.37 W/m2 RA
09:13 41.3 °F 38.0 °F 29.76 in North 7.0 mph 7.0 mph 88% 0.21 in WeatherDisplay:10.37 W/m2 RA
09:18 40.7 °F 37.4 °F 29.76 in NNW 5.0 mph 5.0 mph 88% 0.23 in WeatherDisplay:10.37 W/m2 RA
09:23 39.8 °F 36.2 °F 29.77 in North 11.5 mph 11.5 mph 87% 0.24 in WeatherDisplay:10.37 W/m2 RA
09:28 39.1 °F 35.6 °F 29.77 in NNW 11.5 mph 11.5 mph 87% 0.27 in WeatherDisplay:10.37 W/m2 RA
09:33 38.3 °F 34.8 °F 29.78 in NNE 10.4 mph 10.4 mph 87% 0.28 in WeatherDisplay:10.37 W/m2 RA
09:38 37.5 °F 34.3 °F 29.79 in NW 15.0 mph 15.0 mph 88% 0.30 in WeatherDisplay:10.37 W/m2 RA
09:43 37.1 °F 34.2 °F 29.79 in NNE 10.4 mph 10.4 mph 89% 0.31 in WeatherDisplay:10.37 W/m2 RA
09:48 36.7 °F 33.5 °F 29.79 in North 4.6 mph 4.6 mph 88% 0.31 in WeatherDisplay:10.37 W/m2 RA
09:53 36.2 °F 33.3 °F 29.81 in WNW 4.0 mph 4.0 mph 89% 0.31 in WeatherDisplay:10.37 W/m2 RA
09:58 36.0 °F 33.4 °F 29.80 in NNE 5.8 mph 5.8 mph 90% 0.31 in WeatherDisplay:10.37 W/m2 RA
10:03 36.0 °F 33.4 °F 29.80 in West 6.9 mph 6.9 mph 90% 0.31 in WeatherDisplay:10.37 W/m2 RA
10:08 36.0 °F 33.4 °F 29.80 in NW 3.5 mph 3.5 mph 90% 0.33 in WeatherDisplay:10.37 W/m2 RA
10:13 36.2 °F 33.8 °F 29.80 in NNW 4.6 mph 4.6 mph 91% 0.32 in WeatherDisplay:10.37 W/m2 RA
10:18 36.5 °F 34.1 °F 29.79 in NNW 6.9 mph 6.9 mph 91% 0.31 in WeatherDisplay:10.37 W/m2 RA
10:23 36.8 °F 34.4 °F 29.78 in North 5.8 mph 5.8 mph 91% 0.30 in WeatherDisplay:10.37 W/m2 RA
10:28 37.5 °F 35.4 °F 29.78 in North 5.0 mph 5.0 mph 92% 0.29 in WeatherDisplay:10.37 W/m2 RA
10:33 39.0 °F 36.9 °F 29.77 in NW 5.8 mph 5.8 mph 92% 0.29 in WeatherDisplay:10.37 W/m2 RA
10:38 40.1 °F 38.2 °F 29.77 in NW 4.6 mph 4.6 mph 93% 0.27 in WeatherDisplay:10.37 W/m2 RA
10:43 40.7 °F 38.8 °F 29.76 in NNW 5.8 mph 5.8 mph 93% 0.24 in WeatherDisplay:10.37 W/m2 RA
10:48 40.9 °F 38.8 °F 29.76 in NNW 4.6 mph 4.6 mph 92% 0.22 in WeatherDisplay:10.37 W/m2 RA
10:49 40.9 °F 39.0 °F 29.76 in North 4.6 mph 4.6 mph 93% 0.22 in WeatherDisplay:10.37 W/m2 RA
10:54 41.1 °F 39.2 °F 29.76 in NNE 5.8 mph 5.8 mph 93% 0.20 in WeatherDisplay:10.37 W/m2 RA
10:59 41.2 °F 39.1 °F 29.76 in North 4.6 mph 4.6 mph 92% 0.19 in WeatherDisplay:10.37 W/m2 RA
11:04 40.1 °F 37.7 °F 29.77 in North 12.0 mph 12.0 mph 91% 0.17 in WeatherDisplay:10.37 W/m2 RA
11:09 39.3 °F 36.3 °F 29.78 in North 12.0 mph 12.0 mph 89% 0.17 in WeatherDisplay:10.37 W/m2 RA
11:14 38.7 °F 35.7 °F 29.79 in North 6.9 mph 6.9 mph 89% 0.16 in WeatherDisplay:10.37 W/m2 RA
11:19 38.4 °F 35.4 °F 29.79 in NNW 12.7 mph 12.7 mph 89% 0.18 in WeatherDisplay:10.37 W/m2 RA
11:24 38.4 °F 35.7 °F 29.79 in NNE 11.5 mph 11.5 mph 90% 0.16 in WeatherDisplay:10.37 W/m2 RA
11:29 38.5 °F 35.8 °F 29.79 in North 15.0 mph 15.0 mph 90% 0.16 in WeatherDisplay:10.37 W/m2 RA
11:34 38.5 °F 35.8 °F 29.79 in NNW 12.0 mph 12.0 mph 90% 0.17 in WeatherDisplay:10.37 W/m2 RA
11:39 38.6 °F 35.9 °F 29.78 in NNE 13.8 mph 13.8 mph 90% 0.16 in WeatherDisplay:10.37 W/m2 RA
11:44 38.6 °F 35.6 °F 29.78 in North 17.3 mph 17.3 mph 89% 0.17 in WeatherDisplay:10.37 W/m2 RA
11:49 38.4 °F 35.4 °F 29.79 in NNW 16.1 mph 16.1 mph 89% 0.18 in WeatherDisplay:10.37 W/m2 RA
11:54 38.3 °F 35.3 °F 29.80 in North 13.0 mph 13.0 mph 89% 0.18 in WeatherDisplay:10.37 W/m2 RA
11:59 38.2 °F 35.2 °F 29.80 in NNE 13.8 mph 13.8 mph 89% 0.19 in WeatherDisplay:10.37 W/m2 RA
12:04 38.2 °F 35.2 °F 29.81 in NNW 15.0 mph 15.0 mph 89% 0.19 in WeatherDisplay:10.37 W/m2 RA
12:09 38.0 °F 35.0 °F 29.81 in North 10.4 mph 10.4 mph 89% 0.19 in WeatherDisplay:10.37 W/m2 RA
12:14 37.8 °F 34.8 °F 29.82 in NNW 11.5 mph 11.5 mph 89% 0.18 in WeatherDisplay:10.37 W/m2 RA
12:19 37.6 °F 34.7 °F 29.82 in North 13.8 mph 13.8 mph 89% 0.17 in WeatherDisplay:10.37 W/m2 RA
12:24 37.5 °F 34.6 °F 29.82 in North 12.7 mph 12.7 mph 89% 0.19 in WeatherDisplay:10.37 W/m2 RA
12:29 37.1 °F 34.2 °F 29.83 in NNW 10.4 mph 10.4 mph 89% 0.18 in WeatherDisplay:10.37 W/m2 RA
12:30 37.1 °F 34.2 °F 29.84 in NNE 11.5 mph 11.5 mph 89% 0.19 in WeatherDisplay:10.37 W/m2 RA
12:35 36.8 °F 33.6 °F 29.84 in NNE 11.5 mph 11.5 mph 88% 0.19 in WeatherDisplay:10.37 W/m2 RA
12:40 36.5 °F 33.6 °F 29.84 in North 10.4 mph 10.4 mph 89% 0.19 in WeatherDisplay:10.37 W/m2 RA
12:45 36.1 °F 33.2 °F 29.84 in North 8.1 mph 8.1 mph 89% 0.20 in WeatherDisplay:10.37 W/m2 RA
12:50 35.6 °F 32.7 °F 29.84 in North 18.4 mph 18.4 mph 89% 0.19 in WeatherDisplay:10.37 W/m2 RA
12:55 35.1 °F 32.2 °F 29.85 in North 10.4 mph 10.4 mph 89% 0.17 in WeatherDisplay:10.37 W/m2 RA
13:00 34.7 °F 31.8 °F 29.85 in North 3.5 mph 3.5 mph 89% 0.16 in WeatherDisplay:10.37 W/m2
13:05 34.4 °F 31.8 °F 29.86 in NNW 4.6 mph 4.6 mph 90% 0.15 in WeatherDisplay:10.37 W/m2 CLR
13:10 34.4 °F 31.8 °F 29.86 in NNW 3.0 mph 3.0 mph 90% 0.13 in WeatherDisplay:10.37 W/m2 CLR
13:15 34.1 °F 31.5 °F 29.86 in NNW 3.5 mph 3.5 mph 90% 0.12 in WeatherDisplay:10.37 W/m2 CLR
13:20 34.0 °F 31.4 °F 29.86 in NNW 3.5 mph 3.5 mph 90% 0.10 in WeatherDisplay:10.37 W/m2 CLR
13:25 34.0 °F 31.4 °F 29.87 in NNW 3.5 mph 3.5 mph 90% 0.08 in WeatherDisplay:10.37 W/m2 CLR
13:30 34.0 °F 31.6 °F 29.86 in Calm     91% 0.06 in WeatherDisplay:10.37 W/m2 CLR
13:35 34.0 °F 31.6 °F 29.87 in Calm     91% 0.04 in WeatherDisplay:10.37 W/m2 CLR
13:37 34.0 °F 31.6 °F 29.87 in Calm     91% 0.04 in WeatherDisplay:10.37 W/m2 CLR
13:42 34.1 °F 31.7 °F 29.87 in Calm     91% 0.02 in WeatherDisplay:10.37 W/m2 CLR
13:47 34.1 °F 31.7 °F 29.87 in Calm     91% 0.01 in WeatherDisplay:10.37 W/m2 CLR
13:52 34.2 °F 31.8 °F 29.87 in Calm     91% 0.00 in WeatherDisplay:10.37 W/m2 CLR
13:57 34.3 °F 31.9 °F 29.87 in Calm     91% 0.00 in WeatherDisplay:10.37 W/m2 CLR
14:02 34.4 °F 32.0 °F 29.87 in Calm     91% 0.00 in WeatherDisplay:10.37 W/m2 CLR
14:07 34.4 °F 32.0 °F 29.87 in Calm     91% 0.00 in WeatherDisplay:10.37 W/m2 CLR
14:12 34.4 °F 32.0 °F 29.87 in Calm     91% 0.00 in WeatherDisplay:10.37 W/m2 CLR
14:17 34.4 °F 32.0 °F 29.88 in NNW 6.9 mph 6.9 mph 91% 0.00 in WeatherDisplay:10.37 W/m2 CLR
14:23 34.5 °F 32.1 °F 29.87 in NNW 4.6 mph 4.6 mph 91% 0.01 in WeatherDisplay:10.37 W/m2 RA
14:28 34.7 °F 32.3 °F 29.88 in NNE 6.9 mph 6.9 mph 91% 0.02 in WeatherDisplay:10.37 W/m2 RA
14:33 34.9 °F 32.5 °F 29.88 in NNW 10.4 mph 10.4 mph 91% 0.03 in WeatherDisplay:10.37 W/m2 RA
14:38 35.1 °F 32.7 °F 29.88 in North 9.0 mph 9.0 mph 91% 0.04 in WeatherDisplay:10.37 W/m2 RA
14:43 35.2 °F 32.8 °F 29.88 in NNW 5.8 mph 5.8 mph 91% 0.05 in WeatherDisplay:10.37 W/m2 RA
14:48 35.3 °F 32.9 °F 29.88 in North 13.0 mph 13.0 mph 91% 0.07 in WeatherDisplay:10.37 W/m2 RA
14:53 35.5 °F 32.9 °F 29.87 in North 9.2 mph 9.2 mph 90% 0.08 in WeatherDisplay:10.37 W/m2 RA
14:58 35.6 °F 33.0 °F 29.87 in North 11.5 mph 11.5 mph 90% 0.10 in WeatherDisplay:10.37 W/m2 RA
15:03 35.7 °F 33.1 °F 29.87 in North 6.9 mph 6.9 mph 90% 0.11 in WeatherDisplay:10.37 W/m2 RA
15:08 35.8 °F 33.2 °F 29.87 in North 10.4 mph 10.4 mph 90% 0.13 in WeatherDisplay:10.37 W/m2 RA
15:13 35.8 °F 33.2 °F 29.87 in North 12.7 mph 12.7 mph 90% 0.14 in WeatherDisplay:10.37 W/m2 RA
15:18 35.8 °F 33.2 °F 29.88 in NNE 12.7 mph 12.7 mph 90% 0.15 in WeatherDisplay:10.37 W/m2 RA
15:23 35.9 °F 33.3 °F 29.87 in NNW 11.5 mph 11.5 mph 90% 0.15 in WeatherDisplay:10.37 W/m2 RA
15:28 35.9 °F 33.0 °F 29.87 in North 13.8 mph 13.8 mph 89% 0.16 in WeatherDisplay:10.37 W/m2 RA
15:33 36.1 °F 33.2 °F 29.88 in NW 11.5 mph 11.5 mph 89% 0.16 in WeatherDisplay:10.37 W/m2 RA
15:38 36.2 °F 33.3 °F 29.88 in North 11.5 mph 11.5 mph 89% 0.16 in WeatherDisplay:10.37 W/m2 RA
15:43 36.3 °F 33.4 °F 29.89 in North 13.8 mph 13.8 mph 89% 0.16 in WeatherDisplay:10.37 W/m2 RA
15:48 36.4 °F 33.5 °F 29.90 in NW 9.2 mph 9.2 mph 89% 0.15 in WeatherDisplay:10.37 W/m2 RA
15:53 36.6 °F 33.7 °F 29.90 in NW 3.5 mph 3.5 mph 89% 0.15 in WeatherDisplay:10.37 W/m2 RA
15:58 36.7 °F 33.8 °F 29.91 in NNW 3.5 mph 3.5 mph 89% 0.14 in WeatherDisplay:10.37 W/m2 RA
16:03 36.6 °F 33.7 °F 29.92 in NW 3.5 mph 3.5 mph 89% 0.14 in WeatherDisplay:10.37 W/m2 RA
16:08 36.6 °F 33.7 °F 29.92 in North 7.0 mph 7.0 mph 89% 0.12 in WeatherDisplay:10.37 W/m2 RA
16:13 36.4 °F 33.5 °F 29.92 in North 5.8 mph 5.8 mph 89% 0.12 in WeatherDisplay:10.37 W/m2 RA
16:18 36.1 °F 32.9 °F 29.92 in NW 4.6 mph 4.6 mph 88% 0.12 in WeatherDisplay:10.37 W/m2 RA
16:23 35.8 °F 32.9 °F 29.92 in North 4.6 mph 4.6 mph 89% 0.12 in WeatherDisplay:10.37 W/m2 RA
16:28 35.5 °F 32.6 °F 29.92 in NNE 13.8 mph 13.8 mph 89% 0.11 in WeatherDisplay:10.37 W/m2 RA
16:33 35.3 °F 32.4 °F 29.93 in NNE 11.5 mph 11.5 mph 89% 0.12 in WeatherDisplay:10.37 W/m2 RA
16:38 35.1 °F 32.2 °F 29.92 in NNE 10.4 mph 10.4 mph 89% 0.12 in WeatherDisplay:10.37 W/m2 RA
16:43 35.0 °F 32.4 °F 29.92 in NNW 11.5 mph 11.5 mph 90% 0.12 in WeatherDisplay:10.37 W/m2 RA
16:48 34.8 °F 32.2 °F 29.92 in North 12.7 mph 12.7 mph 90% 0.13 in WeatherDisplay:10.37 W/m2 RA
16:53 34.5 °F 31.9 °F 29.93 in North 3.5 mph 3.5 mph 90% 0.12 in WeatherDisplay:10.37 W/m2 RA
16:58 34.4 °F 31.8 °F 29.93 in North 10.4 mph 10.4 mph 90% 0.12 in WeatherDisplay:10.37 W/m2 RA
17:03 34.2 °F 31.6 °F 29.93 in NNW 3.5 mph 3.5 mph 90% 0.11 in WeatherDisplay:10.37 W/m2 RA
17:08 34.0 °F 31.4 °F 29.93 in NNE 5.8 mph 5.8 mph 90% 0.12 in WeatherDisplay:10.37 W/m2 RA
17:13 33.9 °F 31.6 °F 29.93 in WNW 3.5 mph 3.5 mph 91% 0.11 in WeatherDisplay:10.37 W/m2 RA
17:18 33.8 °F 31.5 °F 29.94 in NNW 3.5 mph 3.5 mph 91% 0.10 in WeatherDisplay:10.37 W/m2
17:23 33.9 °F 31.6 °F 29.93 in North 4.6 mph 4.6 mph 91% 0.10 in WeatherDisplay:10.37 W/m2 RA
17:28 33.9 °F 31.6 °F 29.94 in NNW 3.5 mph 3.5 mph 91% 0.09 in WeatherDisplay:10.37 W/m2 RA
17:33 33.9 °F 31.6 °F 29.94 in NNE 5.8 mph 5.8 mph 91% 0.07 in WeatherDisplay:10.37 W/m2
17:38 33.9 °F 31.6 °F 29.94 in North 4.6 mph 4.6 mph 91% 0.07 in WeatherDisplay:10.37 W/m2 RA
17:43 33.9 °F 31.6 °F 29.94 in NNE 4.0 mph 4.0 mph 91% 0.06 in WeatherDisplay:10.37 W/m2 RA
17:48 33.9 °F 31.6 °F 29.94 in North 3.5 mph 3.5 mph 91% 0.04 in WeatherDisplay:10.37 W/m2 CLR
17:53 33.9 °F 31.6 °F 29.95 in WSW 3.5 mph 3.5 mph 91% 0.04 in WeatherDisplay:10.37 W/m2 CLR
17:58 33.9 °F 31.6 °F 29.95 in NNW 3.5 mph 3.5 mph 91% 0.03 in WeatherDisplay:10.37 W/m2 CLR
18:03 33.9 °F 31.6 °F 29.95 in NNW 3.5 mph 3.5 mph 91% 0.03 in WeatherDisplay:10.37 W/m2 CLR
18:08 33.9 °F 31.8 °F 29.95 in NW 3.5 mph 3.5 mph 92% 0.03 in WeatherDisplay:10.37 W/m2 RA
18:13 33.9 °F 31.8 °F 29.95 in NNW 4.6 mph 4.6 mph 92% 0.03 in WeatherDisplay:10.37 W/m2 RA
18:19 33.9 °F 31.8 °F 29.95 in NNW 5.8 mph 5.8 mph 92% 0.03 in WeatherDisplay:10.37 W/m2 CLR
18:24 34.0 °F 31.9 °F 29.95 in North 5.0 mph 5.0 mph 92% 0.02 in WeatherDisplay:10.37 W/m2 CLR
18:29 34.1 °F 32.0 °F 29.95 in NW 4.6 mph 4.6 mph 92% 0.03 in WeatherDisplay:10.37 W/m2 RA
18:34 34.1 °F 32.0 °F 29.95 in North 5.8 mph 5.8 mph 92% 0.03 in WeatherDisplay:10.37 W/m2 RA
18:39 34.2 °F 31.8 °F 29.95 in NNE 5.0 mph 5.0 mph 91% 0.02 in WeatherDisplay:10.37 W/m2 CLR
18:44 34.3 °F 32.2 °F 29.95 in North 9.2 mph 9.2 mph 92% 0.02 in WeatherDisplay:10.37 W/m2 CLR
18:49 34.4 °F 32.3 °F 29.96 in NW 8.1 mph 8.1 mph 92% 0.03 in WeatherDisplay:10.37 W/m2 RA
18:54 34.4 °F 32.0 °F 29.96 in North 4.6 mph 4.6 mph 91% 0.04 in WeatherDisplay:10.37 W/m2 RA
18:59 34.4 °F 32.0 °F 29.96 in NNE 9.2 mph 9.2 mph 91% 0.05 in WeatherDisplay:10.37 W/m2 RA
19:04 34.4 °F 32.0 °F 29.97 in NNE 11.5 mph 11.5 mph 91% 0.06 in WeatherDisplay:10.37 W/m2 RA
19:09 34.4 °F 32.0 °F 29.97 in NNW 10.4 mph 10.4 mph 91% 0.05 in WeatherDisplay:10.37 W/m2 RA
19:14 34.4 °F 32.0 °F 29.97 in North 3.5 mph 3.5 mph 91% 0.06 in WeatherDisplay:10.37 W/m2 RA
19:19 34.5 °F 32.1 °F 29.98 in North 8.1 mph 8.1 mph 91% 0.07 in WeatherDisplay:10.37 W/m2 RA
19:24 34.6 °F 32.2 °F 29.97 in NNE 10.4 mph 10.4 mph 91% 0.07 in WeatherDisplay:10.37 W/m2 RA
19:29 34.7 °F 32.3 °F 29.97 in WNW 11.0 mph 11.0 mph 91% 0.07 in WeatherDisplay:10.37 W/m2 RA
19:34 34.8 °F 32.4 °F 29.97 in North 9.2 mph 9.2 mph 91% 0.08 in WeatherDisplay:10.37 W/m2 RA
19:39 34.9 °F 32.5 °F 29.97 in East 6.9 mph 6.9 mph 91% 0.09 in WeatherDisplay:10.37 W/m2 RA
19:44 34.9 °F 32.5 °F 29.98 in NNW 5.0 mph 5.0 mph 91% 0.09 in WeatherDisplay:10.37 W/m2 RA
19:49 34.9 °F 32.5 °F 29.99 in NW 6.9 mph 6.9 mph 91% 0.09 in WeatherDisplay:10.37 W/m2 RA
19:54 34.9 °F 32.5 °F 29.99 in NE 11.5 mph 11.5 mph 91% 0.09 in WeatherDisplay:10.37 W/m2 RA
19:59 34.8 °F 32.4 °F 29.99 in North 5.8 mph 5.8 mph 91% 0.09 in WeatherDisplay:10.37 W/m2 RA
20:04 34.6 °F 32.2 °F 30.00 in North 6.9 mph 6.9 mph 91% 0.08 in WeatherDisplay:10.37 W/m2 RA
20:09 34.4 °F 32.0 °F 30.00 in NNW 10.0 mph 10.0 mph 91% 0.09 in WeatherDisplay:10.37 W/m2 RA
20:14 34.4 °F 32.0 °F 30.00 in NNW 6.9 mph 6.9 mph 91% 0.08 in WeatherDisplay:10.37 W/m2 RA
20:19 34.4 °F 32.0 °F 30.01 in North 4.6 mph 4.6 mph 91% 0.07 in WeatherDisplay:10.37 W/m2
20:24 34.3 °F 31.9 °F 30.01 in North 3.5 mph 3.5 mph 91% 0.08 in WeatherDisplay:10.37 W/m2 RA
20:29 34.4 °F 32.0 °F 30.01 in NNW 3.5 mph 3.5 mph 91% 0.07 in WeatherDisplay:10.37 W/m2 RA
20:34 34.4 °F 32.0 °F 30.01 in NNW 9.2 mph 9.2 mph 91% 0.07 in WeatherDisplay:10.37 W/m2 RA
20:39 34.4 °F 32.0 °F 30.02 in NNW 9.2 mph 9.2 mph 91% 0.06 in WeatherDisplay:10.37 W/m2 RA
20:44 34.4 °F 32.0 °F 30.02 in NNW 3.5 mph 3.5 mph 91% 0.07 in WeatherDisplay:10.37 W/m2 RA
20:49 34.4 °F 32.0 °F 30.02 in NNE 5.8 mph 5.8 mph 91% 0.06 in WeatherDisplay:10.37 W/m2 RA
20:54 34.3 °F 31.9 °F 30.02 in North 3.5 mph 3.5 mph 91% 0.05 in WeatherDisplay:10.37 W/m2 CLR
20:59 34.3 °F 32.2 °F 30.03 in NNE 4.6 mph 4.6 mph 92% 0.05 in WeatherDisplay:10.37 W/m2 RA
21:04 34.4 °F 32.3 °F 30.06 in NW 2.3 mph 2.3 mph 92% 0.05 in WeatherDisplay:10.37 W/m2 RA
21:09 34.4 °F 32.3 °F 30.06 in North 3.5 mph 3.5 mph 92% 0.04 in WeatherDisplay:10.37 W/m2 CLR
21:14 34.3 °F 32.2 °F 30.06 in NW 3.5 mph 3.5 mph 92% 0.05 in WeatherDisplay:10.37 W/m2 RA
21:19 34.3 °F 32.2 °F 30.07 in NNW 3.5 mph 3.5 mph 92% 0.05 in WeatherDisplay:10.37 W/m2 RA
21:24 34.4 °F 32.3 °F 30.07 in North 4.6 mph 4.6 mph 92% 0.04 in WeatherDisplay:10.37 W/m2 CLR
21:29 34.4 °F 32.3 °F 30.07 in NNW 3.5 mph 3.5 mph 92% 0.05 in WeatherDisplay:10.37 W/m2 RA
21:34 34.4 °F 32.3 °F 30.07 in NNW 3.5 mph 3.5 mph 92% 0.04 in WeatherDisplay:10.37 W/m2 RA
21:39 34.4 °F 32.3 °F 30.07 in North 3.5 mph 3.5 mph 92% 0.04 in WeatherDisplay:10.37 W/m2 CLR
21:44 34.4 °F 32.3 °F 30.08 in NNW 4.6 mph 4.6 mph 92% 0.04 in WeatherDisplay:10.37 W/m2 RA
21:49 34.4 °F 32.3 °F 30.08 in North 4.6 mph 4.6 mph 92% 0.04 in WeatherDisplay:10.37 W/m2 RA
21:54 34.4 °F 32.3 °F 30.08 in North 3.5 mph 3.5 mph 92% 0.04 in WeatherDisplay:10.37 W/m2 CLR
21:59 34.4 °F 32.3 °F 30.08 in NNW 4.6 mph 4.6 mph 92% 0.04 in WeatherDisplay:10.37 W/m2 RA
22:04 34.4 °F 32.3 °F 30.06 in North 3.5 mph 3.5 mph 92% 0.04 in WeatherDisplay:10.37 W/m2 RA
22:09 34.4 °F 32.3 °F 30.06 in NNW 3.5 mph 3.5 mph 92% 0.05 in WeatherDisplay:10.37 W/m2 RA
22:14 34.4 °F 32.3 °F 30.06 in NNW 6.9 mph 6.9 mph 92% 0.04 in WeatherDisplay:10.37 W/m2 RA
22:15 34.4 °F 32.3 °F 30.06 in NW 4.6 mph 4.6 mph 92% 0.04 in WeatherDisplay:10.37 W/m2 RA
22:20 34.4 °F 32.3 °F 30.06 in NW 6.9 mph 6.9 mph 92% 0.05 in WeatherDisplay:10.37 W/m2 RA
22:25 34.5 °F 32.4 °F 30.05 in NNW 4.6 mph 4.6 mph 92% 0.05 in WeatherDisplay:10.37 W/m2 RA
22:30 34.6 °F 32.5 °F 30.05 in NW 4.6 mph 4.6 mph 92% 0.04 in WeatherDisplay:10.37 W/m2
22:35 34.7 °F 32.6 °F 30.05 in North 6.9 mph 6.9 mph 92% 0.05 in WeatherDisplay:10.37 W/m2 RA
22:40 34.7 °F 32.6 °F 30.05 in WNW 8.1 mph 8.1 mph 92% 0.05 in WeatherDisplay:10.37 W/m2 RA
22:45 34.8 °F 32.4 °F 30.05 in North 5.8 mph 5.8 mph 91% 0.05 in WeatherDisplay:10.37 W/m2 RA
22:50 34.8 °F 32.4 °F 30.05 in North 6.9 mph 6.9 mph 91% 0.05 in WeatherDisplay:10.37 W/m2 RA
22:55 34.8 °F 32.4 °F 30.05 in NNW 5.8 mph 5.8 mph 91% 0.06 in WeatherDisplay:10.37 W/m2 RA
23:00 34.8 °F 32.4 °F 30.05 in NW 4.6 mph 4.6 mph 91% 0.05 in WeatherDisplay:10.37 W/m2 RA
23:05 34.8 °F 32.4 °F 30.07 in NNW 3.5 mph 3.5 mph 91% 0.05 in WeatherDisplay:10.37 W/m2
23:10 34.8 °F 32.7 °F 30.07 in NNW 6.9 mph 6.9 mph 92% 0.05 in WeatherDisplay:10.37 W/m2 RA
23:15 34.8 °F 32.4 °F 30.07 in NW 5.8 mph 5.8 mph 91% 0.05 in WeatherDisplay:10.37 W/m2 RA
23:20 34.9 °F 32.5 °F 30.07 in NNW 6.9 mph 6.9 mph 91% 0.05 in WeatherDisplay:10.37 W/m2 RA
23:25 35.0 °F 32.6 °F 30.07 in NW 9.2 mph 9.2 mph 91% 0.05 in WeatherDisplay:10.37 W/m2 RA
23:30 34.9 °F 32.5 °F 30.07 in NW 6.9 mph 6.9 mph 91% 0.05 in WeatherDisplay:10.37 W/m2
23:35 34.9 °F 32.5 °F 30.07 in NNW 3.5 mph 3.5 mph 91% 0.05 in WeatherDisplay:10.37 W/m2 RA
23:40 35.0 °F 32.6 °F 30.07 in North 4.0 mph 4.0 mph 91% 0.05 in WeatherDisplay:10.37 W/m2 RA
23:45 35.0 °F 32.6 °F 30.07 in North 6.9 mph 6.9 mph 91% 0.04 in WeatherDisplay:10.37 W/m2 CLR
23:50 35.0 °F 32.6 °F 30.07 in NNW 3.5 mph 3.5 mph 91% 0.05 in WeatherDisplay:10.37 W/m2 RA
23:55 35.0 °F 32.6 °F 30.07 in NNW 5.8 mph 5.8 mph 91% 0.04 in WeatherDisplay:10.37 W/m2 RA
Windsor Co Weather
Compliments of Weather Underground - 3 mb